HESHOJAM

Guest
Details From HESH - SHARM EL SHEIKH INTL
To OJAM - MARKA INTL
Flight Number -
Tags generated
Created
Modified
Stats Distance 256 nm / 473 km
Max Altitude 31,700 ft / 9,662 m
Waypoints 4
Social Downloads 0
Likes 0
Share VATSIM

Download

Looking for another format? Having issues loading an existing format? Contact us
Advertisement - Login to hide

Notes

Basic altitude profile: - Ascent Rate: 2500ft/min - Ascent Speed: 250kts - Cruise Altitude: 35000ft - Cruise Speed: 420kts - Descent Rate: 1500ft/min - Descent Speed: 250kts Options: - Use NATs: yes - Use PACOTS: yes - Use low airways: no - Use high airways: yes

Route

HESH LOT UJ10 ZFR OJAM

ID Type Via Altitude Latitude Longitude Leg Dist Tot Dist Heading (true) Name
O HESH APT - 0 ft / 0 m 27.97732˚ 34.39495˚ - 0 nm - SHARM EL SHEIKH INTL
LOT VOR - 31,700 ft / 9,662 m 29.60778˚ 34.97556˚ 102 nm 102 nm 17° / 17° EILOT VOR-DME
ZFR VOR UJ10 (AWY-HI) 19,300 ft / 5,883 m 30.55833˚ 35.16111˚ 57 nm 160 nm 10° / 10° ZOFAR VOR-DME
O OJAM APT - 0 ft / 0 m 31.97270˚ 35.99157˚ 95 nm 255 nm 26° / 27° MARKA INTL

Altitude Profile

Advertisement - Login to hide

Weather


0- 5 10 15 20 25 30 35+ Temperature / ° C

Clouds and Precipitation
Forecast for 2017-12-13 06:00 UTC. Updated 12 minutes ago

Ground ~20,000 ft ~40,000 ft Winds

HESH

Details ICAO HESH (SSH)
Name SHARM EL SHEIKH INTL
Region Egypt
Timezone Africa/Cairo (UTC+2.0)
Stats Elevation 143 ft / 44 m (AMSL)
Location 27.977318° 34.394945°
Runways 2
Magnetic Variation 4.281° E

METAR

HESH 130400Z 32005KT CAVOK 16/M07 Q1016 NOSIG

Decode

TAF

Not found

Departure Runways

ID Width Length Bearing (true) Bearing (mag) Surface Threshold Offset Overrun Length
04L 148 ft / 45 m 10,120 ft / 3,085 m 42.65° 38.37° Asphalt 0 ft / 0 m 200 ft / 61 m
04R 148 ft / 45 m 10,121 ft / 3,085 m 42.65° 38.37° Asphalt 0 ft / 0 m 200 ft / 61 m
22L 148 ft / 45 m 10,121 ft / 3,085 m 222.66° 218.38° Asphalt 0 ft / 0 m 200 ft / 61 m
22R 148 ft / 45 m 10,120 ft / 3,085 m 222.66° 218.38° Asphalt 0 ft / 0 m 200 ft / 61 m

OJAM

Details ICAO OJAM (ADJ)
Name MARKA INTL
Region Jordan and the West Bank
Timezone Asia/Amman (UTC+2.0)
Stats Elevation 2,555 ft / 779 m (AMSL)
Location 31.972703° 35.991572°
Runways 1
Magnetic Variation 4.690° E

METAR

OJAM 130500Z 00000KT 3000 HZ BKN050 08/00 Q1020 NOSIG

Decode

TAF

TAF OJAM 121650Z 1218/1324 VRB02KT 4000 HZ NSC BEMCG 1307/1309 29012KT FEW030

Decode

Destination Runways

ID Width Length Bearing (true) Bearing (mag) Surface Threshold Offset Overrun Length
06 148 ft / 45 m 10,736 ft / 3,272 m 64.03° 59.34° Asphalt 0 ft / 0 m 735 ft / 224 m
24 148 ft / 45 m 10,736 ft / 3,272 m 244.05° 239.36° Asphalt 0 ft / 0 m 394 ft / 120 m

Approach Navaids

Runway Type Ident Frequency Range Bearing (true) Bearing (mag) Slope Elevation
24 Localiser LAMN 109.50 MHz 18 nm / 33 km 244.07° 239.38° - 2,557 ft / 779 m (AMSL)
24 Glidescope LAMN 109.50 MHz 10 nm / 19 km 244.04° 239.35° 3.00° 2,457 ft / 749 m (AMSL)